createdAt,value
2018-06-29T00:01:02.069Z,0
2018-06-29T00:02:12.150Z,0
2018-06-29T00:03:22.222Z,0
2018-06-29T00:04:32.041Z,0
2018-06-29T00:05:42.108Z,0
2018-06-29T00:06:52.167Z,0
2018-06-29T00:08:02.246Z,0
2018-06-29T00:09:12.053Z,0
2018-06-29T00:10:21.871Z,0
2018-06-29T00:11:31.663Z,0
2018-06-29T00:12:41.761Z,0
2018-06-29T00:13:51.824Z,0
2018-06-29T00:15:01.628Z,0
2018-06-29T00:16:11.691Z,0
2018-06-29T00:17:21.772Z,0
2018-06-29T00:18:31.841Z,0
2018-06-29T00:19:41.393Z,0
2018-06-29T00:20:51.202Z,0
2018-06-29T00:22:01.271Z,0
2018-06-29T00:23:11.349Z,0
2018-06-29T00:24:21.408Z,0
2018-06-29T00:25:31.478Z,0
2018-06-29T00:26:41.613Z,0
2018-06-29T00:27:51.679Z,0
2018-06-29T00:29:01.754Z,0
2018-06-29T00:30:11.551Z,0
2018-06-29T00:31:21.629Z,0
2018-06-29T00:32:31.480Z,0
2018-06-29T00:33:41.552Z,0
2018-06-29T00:34:51.624Z,0
2018-06-29T00:36:01.686Z,0
2018-06-29T00:37:11.504Z,0
2018-06-29T00:38:21.619Z,0
2018-06-29T00:39:31.710Z,0
2018-06-29T00:40:41.811Z,0
2018-06-29T00:41:51.871Z,0
2018-06-29T00:43:01.945Z,0
2018-06-29T00:44:12.025Z,0
2018-06-29T00:45:22.100Z,0
2018-06-29T00:46:31.914Z,0
2018-06-29T00:47:41.993Z,0
2018-06-29T00:48:52.066Z,0
2018-06-29T00:50:02.186Z,0
2018-06-29T00:51:11.728Z,0
2018-06-29T00:52:21.791Z,0
2018-06-29T00:53:31.867Z,0
2018-06-29T00:54:42.307Z,0
2018-06-29T00:55:52.386Z,0
2018-06-29T00:57:02.454Z,0
2018-06-29T00:58:12.525Z,0
2018-06-29T00:59:22.322Z,0
2018-06-29T01:00:32.395Z,0
2018-06-29T01:01:42.466Z,0
2018-06-29T01:02:52.261Z,0
2018-06-29T01:04:01.824Z,0
2018-06-29T01:05:11.637Z,0
2018-06-29T01:06:21.704Z,0
2018-06-29T01:07:31.517Z,0
2018-06-29T01:08:41.073Z,0
2018-06-29T01:09:50.884Z,0
2018-06-29T01:11:00.694Z,0
2018-06-29T01:12:10.779Z,0
2018-06-29T01:13:20.842Z,0
2018-06-29T01:14:30.942Z,0
2018-06-29T01:15:41.099Z,0
2018-06-29T01:16:51.181Z,0
2018-06-29T01:18:00.984Z,0
2018-06-29T01:19:11.040Z,0
2018-06-29T01:20:20.848Z,0
2018-06-29T01:21:30.684Z,0
2018-06-29T01:22:40.495Z,0
2018-06-29T01:23:50.560Z,0
2018-06-29T01:25:00.373Z,0
2018-06-29T01:26:10.198Z,0
2018-06-29T01:27:20.032Z,0
2018-06-29T01:28:30.098Z,0
2018-06-29T01:29:40.180Z,0
2018-06-29T01:30:50.245Z,0
2018-06-29T01:32:00.334Z,0
2018-06-29T01:33:10.420Z,0
2018-06-29T01:34:20.508Z,0
2018-06-29T01:35:30.590Z,0
2018-06-29T01:36:40.679Z,0
2018-06-29T01:37:50.473Z,0
2018-06-29T01:39:00.313Z,0
2018-06-29T01:40:10.394Z,0
2018-06-29T01:41:20.545Z,0
2018-06-29T01:42:30.649Z,0
2018-06-29T01:43:40.696Z,0
2018-06-29T01:44:50.754Z,0
2018-06-29T01:46:00.577Z,0
2018-06-29T01:47:10.658Z,0
2018-06-29T01:48:20.518Z,0
2018-06-29T01:49:30.584Z,0
2018-06-29T01:50:40.632Z,0
2018-06-29T01:51:50.711Z,0
2018-06-29T01:53:00.805Z,0
2018-06-29T01:54:11.046Z,0
2018-06-29T01:55:21.124Z,0
2018-06-29T01:56:31.201Z,0
2018-06-29T01:57:41.025Z,0
2018-06-29T01:58:51.094Z,0
2018-06-29T02:00:01.232Z,0
2018-06-29T02:01:11.314Z,0
2018-06-29T02:02:21.121Z,0
2018-06-29T02:03:31.228Z,0
2018-06-29T02:04:42.935Z,0
2018-06-29T02:05:53.049Z,0
2018-06-29T02:07:03.120Z,0
2018-06-29T02:08:13.141Z,0
2018-06-29T02:09:22.964Z,0
2018-06-29T02:10:33.040Z,0
2018-06-29T02:11:42.853Z,0
2018-06-29T02:12:52.925Z,0
2018-06-29T02:14:02.730Z,0
2018-06-29T02:15:12.815Z,0
2018-06-29T02:16:22.104Z,0
2018-06-29T02:17:31.972Z,0
2018-06-29T02:18:42.057Z,0
2018-06-29T02:19:52.131Z,0
2018-06-29T02:21:02.200Z,0
2018-06-29T02:22:12.271Z,0
2018-06-29T02:23:22.334Z,0
2018-06-29T02:24:32.415Z,0
2018-06-29T02:25:42.489Z,0
2018-06-29T02:26:52.554Z,0
2018-06-29T02:28:02.636Z,0
2018-06-29T02:29:12.779Z,0
2018-06-29T02:30:22.952Z,0
2018-06-29T02:31:32.787Z,0
2018-06-29T02:32:42.901Z,0
2018-06-29T02:33:52.996Z,0
2018-06-29T02:35:03.072Z,0
2018-06-29T02:36:13.147Z,0
2018-06-29T02:37:22.955Z,0
2018-06-29T02:38:32.765Z,0
2018-06-29T02:39:42.847Z,0
2018-06-29T02:40:52.927Z,0
2018-06-29T02:42:03.021Z,0
2018-06-29T02:43:13.124Z,0
2018-06-29T02:44:23.226Z,0
2018-06-29T02:45:33.306Z,0
2018-06-29T02:46:43.397Z,0
2018-06-29T02:47:53.487Z,0
2018-06-29T02:49:03.587Z,0
2018-06-29T02:50:13.674Z,0
2018-06-29T02:51:23.748Z,0
2018-06-29T02:52:33.559Z,0
2018-06-29T02:53:43.625Z,0
2018-06-29T02:54:53.435Z,0
2018-06-29T02:56:03.522Z,0
2018-06-29T02:57:13.339Z,0
2018-06-29T02:58:23.439Z,0
2018-06-29T02:59:33.553Z,0
2018-06-29T03:00:43.652Z,5
2018-06-29T03:01:53.720Z,5
2018-06-29T03:03:03.814Z,5
2018-06-29T03:34:50.460Z,50
2018-06-29T03:36:00.501Z,50
2018-06-29T03:37:10.345Z,55
2018-06-29T03:38:20.155Z,55
2018-06-29T03:39:29.968Z,55
2018-06-29T03:40:40.526Z,55
2018-06-29T03:41:50.599Z,55
2018-06-29T03:43:00.409Z,50
2018-06-29T03:44:10.547Z,45
2018-06-29T03:45:20.605Z,40
2018-06-29T03:46:30.666Z,35
2018-06-29T03:47:40.733Z,35
2018-06-29T03:48:50.549Z,30
2018-06-29T03:50:00.668Z,30
2018-06-29T03:51:10.754Z,35
2018-06-29T03:52:20.566Z,40
2018-06-29T03:53:30.645Z,40
2018-06-29T03:54:40.454Z,45
2018-06-29T03:55:50.529Z,50
2018-06-29T03:57:00.346Z,50
2018-06-29T03:58:10.154Z,50
2018-06-29T03:59:19.967Z,55
2018-06-29T04:00:30.043Z,60
2018-06-29T04:01:39.849Z,65
2018-06-29T04:02:49.920Z,65
2018-06-29T04:04:00.040Z,70
2018-06-29T04:05:10.120Z,70
2018-06-29T04:06:19.676Z,75
2018-06-29T04:07:29.754Z,75
2018-06-29T04:08:39.575Z,80
2018-06-29T04:09:49.129Z,80
2018-06-29T04:10:59.213Z,85
2018-06-29T04:12:09.035Z,80
2018-06-29T04:13:19.110Z,85
2018-06-29T04:14:28.927Z,85
2018-06-29T04:15:38.998Z,85
2018-06-29T04:16:49.072Z,90
2018-06-29T04:17:59.138Z,90
2018-06-29T04:19:08.957Z,95
2018-06-29T04:20:18.772Z,105
2018-06-29T04:21:28.834Z,120
2018-06-29T04:22:38.914Z,140
2018-06-29T04:23:48.777Z,150
2018-06-29T04:24:58.850Z,160
2018-06-29T04:26:08.925Z,165
2018-06-29T04:27:19.011Z,170
2018-06-29T04:28:29.083Z,165
2018-06-29T04:29:39.157Z,170
2018-06-29T04:30:49.240Z,160
2018-06-29T04:31:59.067Z,175
2018-06-29T04:33:09.147Z,180
2018-06-29T04:34:18.944Z,175
2018-06-29T04:35:28.744Z,175
2018-06-29T04:36:38.567Z,170
2018-06-29T04:37:48.401Z,180
2018-06-29T04:38:58.199Z,185
2018-06-29T04:40:08.013Z,195
2018-06-29T04:41:18.082Z,200
2018-06-29T04:42:27.879Z,205
2018-06-29T04:43:37.953Z,205
2018-06-29T04:44:48.036Z,210
2018-06-29T04:45:57.318Z,210
2018-06-29T04:47:07.401Z,215
2018-06-29T04:48:17.465Z,235
2018-06-29T04:49:27.871Z,225
2018-06-29T04:50:38.001Z,220
2018-06-29T04:51:48.085Z,195
2018-06-29T04:52:58.157Z,200
2018-06-29T04:54:08.298Z,235
2018-06-29T04:55:18.371Z,155
2018-06-29T04:56:28.231Z,160
2018-06-29T04:57:38.306Z,135
2018-06-29T04:58:48.372Z,135
2018-06-29T04:59:57.934Z,135
2018-06-29T05:01:08.333Z,140
2018-06-29T05:02:18.408Z,145
2018-06-29T05:03:28.227Z,165
2018-06-29T05:04:38.302Z,130
2018-06-29T05:05:48.364Z,120
2018-06-29T05:06:58.452Z,110
2018-06-29T05:08:08.265Z,100
2018-06-29T05:09:18.328Z,95
2018-06-29T05:10:28.393Z,105
2018-06-29T05:11:38.819Z,100
2018-06-29T05:12:48.911Z,95
2018-06-29T05:13:59.011Z,85
2018-06-29T05:15:09.087Z,75
2018-06-29T05:16:18.889Z,70
2018-06-29T05:17:28.721Z,65
2018-06-29T05:18:38.554Z,65
2018-06-29T05:19:48.693Z,65
2018-06-29T05:20:58.785Z,65
2018-06-29T05:22:08.858Z,65
2018-06-29T05:23:18.424Z,65
2018-06-29T05:24:28.497Z,65
2018-06-29T05:25:38.570Z,60
2018-06-29T05:26:48.392Z,60
2018-06-29T05:27:58.474Z,65
2018-06-29T05:29:08.583Z,65
2018-06-29T05:30:18.393Z,65
2018-06-29T05:31:28.532Z,60
2018-06-29T05:32:38.624Z,55
2018-06-29T05:33:48.431Z,50
2018-06-29T05:34:58.513Z,50
2018-06-29T05:36:08.458Z,45
2018-06-29T05:37:18.536Z,45
2018-06-29T05:38:28.365Z,40
2018-06-29T05:39:38.450Z,40
2018-06-29T05:40:48.531Z,40
2018-06-29T05:41:58.691Z,45
2018-06-29T05:43:08.781Z,55
2018-06-29T05:44:18.871Z,60
2018-06-29T05:45:28.956Z,65
2018-06-29T05:46:39.039Z,70
2018-06-29T05:47:49.137Z,70
2018-06-29T05:48:59.274Z,75
2018-06-29T05:50:09.362Z,75
2018-06-29T05:51:19.433Z,85
2018-06-29T05:52:29.541Z,95
2018-06-29T05:53:39.637Z,105
2018-06-29T05:54:49.516Z,120
2018-06-29T05:55:59.615Z,130
2018-06-29T05:57:09.695Z,145
2018-06-29T05:58:19.515Z,265
2018-06-29T05:59:29.590Z,175
2018-06-29T06:00:39.407Z,250
2018-06-29T06:01:49.497Z,320
2018-06-29T06:02:59.582Z,190
2018-06-29T06:04:09.394Z,180
2018-06-29T06:05:19.201Z,180
2018-06-29T06:06:29.277Z,185
2018-06-29T06:07:38.856Z,200
2018-06-29T06:08:48.948Z,305
2018-06-29T06:09:59.050Z,265
2018-06-29T06:11:09.142Z,265
2018-06-29T06:12:19.247Z,245
2018-06-29T06:13:28.893Z,275
2018-06-29T06:14:38.796Z,315
2018-06-29T06:15:48.896Z,335
2018-06-29T06:16:58.992Z,295
2018-06-29T06:18:09.079Z,270
2018-06-29T06:19:19.163Z,270
2018-06-29T06:20:29.238Z,265
2018-06-29T06:21:39.325Z,315
2018-06-29T06:22:49.398Z,255
2018-06-29T06:23:59.479Z,320
2018-06-29T06:25:09.595Z,260
2018-06-29T06:26:19.499Z,270
2018-06-29T06:27:29.325Z,280
2018-06-29T06:28:39.389Z,290
2018-06-29T06:29:49.195Z,295
2018-06-29T06:30:59.275Z,335
2018-06-29T06:32:09.333Z,355
2018-06-29T06:33:19.727Z,275
2018-06-29T06:34:29.541Z,270
2018-06-29T06:35:39.614Z,270
2018-06-29T06:36:49.740Z,260
2018-06-29T06:37:59.551Z,240
2018-06-29T06:39:09.638Z,235
2018-06-29T06:40:19.729Z,235
2018-06-29T06:41:29.846Z,235
2018-06-29T06:42:39.667Z,245
2018-06-29T06:43:49.807Z,290
2018-06-29T06:44:59.881Z,310
2018-06-29T06:46:09.954Z,315
2018-06-29T06:47:20.045Z,320
2018-06-29T06:48:30.112Z,315
2018-06-29T06:49:40.183Z,315
2018-06-29T06:50:50.262Z,320
2018-06-29T06:52:00.329Z,320
2018-06-29T06:53:10.153Z,315
2018-06-29T06:54:20.237Z,275
2018-06-29T06:55:30.052Z,240
2018-06-29T06:56:40.129Z,220
2018-06-29T06:57:49.967Z,220
2018-06-29T06:58:59.795Z,225
2018-06-29T07:00:09.635Z,225
2018-06-29T07:01:19.717Z,220
2018-06-29T07:02:29.797Z,220
2018-06-29T07:03:39.867Z,220
2018-06-29T07:04:50.008Z,225
2018-06-29T07:05:59.567Z,230
2018-06-29T07:07:09.655Z,230
2018-06-29T07:08:19.746Z,230
2018-06-29T07:09:29.567Z,230
2018-06-29T07:10:39.708Z,235
2018-06-29T07:11:49.833Z,230
2018-06-29T07:12:59.814Z,235
2018-06-29T07:14:09.641Z,240
2018-06-29T07:15:19.736Z,290
2018-06-29T07:16:29.831Z,285
2018-06-29T07:17:39.900Z,280
2018-06-29T07:18:49.743Z,255
2018-06-29T07:19:59.815Z,260
2018-06-29T07:21:09.902Z,240
2018-06-29T07:22:19.973Z,245
2018-06-29T07:23:30.071Z,260
2018-06-29T07:24:40.098Z,260
2018-06-29T07:25:50.176Z,235
2018-06-29T07:27:00.258Z,270
2018-06-29T07:28:10.322Z,270
2018-06-29T07:29:21.416Z,270
2018-06-29T07:30:31.509Z,265
2018-06-29T07:31:41.604Z,270
2018-06-29T07:32:51.687Z,245
2018-06-29T07:34:01.777Z,275
2018-06-29T07:35:11.616Z,265
2018-06-29T07:36:21.745Z,270
2018-06-29T07:37:31.847Z,245
2018-06-29T07:38:42.086Z,250
2018-06-29T07:39:51.991Z,260
2018-06-29T07:41:02.095Z,260
2018-06-29T07:42:11.941Z,270
2018-06-29T07:43:22.022Z,255
2018-06-29T07:44:32.115Z,255
2018-06-29T07:45:42.207Z,250
2018-06-29T07:46:52.704Z,245
2018-06-29T07:48:02.802Z,225
2018-06-29T07:49:12.619Z,205
2018-06-29T07:50:22.456Z,205
2018-06-29T07:51:32.545Z,200
2018-06-29T07:52:42.630Z,200
2018-06-29T07:53:52.719Z,185
2018-06-29T07:55:02.807Z,155
2018-06-29T07:56:13.018Z,155
2018-06-29T07:57:23.210Z,160
2018-06-29T07:58:34.466Z,170
2018-06-29T07:59:44.692Z,175
2018-06-29T08:00:54.799Z,170
2018-06-29T08:02:04.915Z,165
2018-06-29T08:03:15.044Z,170
2018-06-29T08:04:25.136Z,180
2018-06-29T08:05:35.253Z,210
2018-06-29T08:06:45.372Z,260
2018-06-29T08:07:55.467Z,290
2018-06-29T08:09:05.569Z,285
2018-06-29T08:10:15.663Z,265
2018-06-29T08:11:25.784Z,285
2018-06-29T08:12:35.907Z,260
2018-06-29T08:13:46.027Z,245
2018-06-29T08:14:55.858Z,220
2018-06-29T08:16:05.705Z,185
2018-06-29T08:17:15.826Z,160
2018-06-29T08:18:25.936Z,145
2018-06-29T08:19:36.018Z,135
2018-06-29T08:20:46.134Z,140
2018-06-29T08:21:56.301Z,130
2018-06-29T08:23:06.138Z,135
2018-06-29T08:24:16.282Z,150
2018-06-29T08:25:26.168Z,160
2018-06-29T08:26:36.271Z,155
2018-06-29T08:27:46.446Z,150
2018-06-29T08:28:56.258Z,155
2018-06-29T08:30:06.068Z,170
2018-06-29T08:31:15.891Z,170
2018-06-29T08:32:25.720Z,170
2018-06-29T08:33:35.561Z,175
2018-06-29T08:34:45.650Z,210
2018-06-29T08:35:55.753Z,245
2018-06-29T08:37:05.851Z,250
2018-06-29T08:38:15.961Z,235
2018-06-29T08:39:25.840Z,205
2018-06-29T08:40:35.943Z,180
2018-06-29T08:41:46.044Z,150
2018-06-29T08:42:56.191Z,145
2018-06-29T08:44:06.362Z,140
2018-06-29T08:45:16.443Z,140
2018-06-29T08:46:26.562Z,145
2018-06-29T08:47:36.664Z,140
2018-06-29T08:48:46.753Z,145
2018-06-29T08:49:56.590Z,155
2018-06-29T08:51:06.702Z,160
2018-06-29T08:52:17.327Z,155
2018-06-29T08:53:27.521Z,155
2018-06-29T08:54:37.333Z,165
2018-06-29T08:55:47.420Z,170
2018-06-29T08:56:57.291Z,145
2018-06-29T08:58:07.392Z,155
2018-06-29T08:59:17.504Z,175
2018-06-29T09:00:27.611Z,180
2018-06-29T09:01:37.697Z,175
2018-06-29T09:02:47.817Z,170
2018-06-29T09:03:57.917Z,155
2018-06-29T09:05:08.269Z,150
2018-06-29T09:06:18.373Z,150
2018-06-29T09:07:28.252Z,135
2018-06-29T09:08:38.324Z,125
2018-06-29T09:09:48.401Z,125
2018-06-29T09:10:58.635Z,125
2018-06-29T09:12:08.470Z,130
2018-06-29T09:13:18.576Z,140
2018-06-29T09:14:28.412Z,145
2018-06-29T09:15:37.991Z,140
2018-06-29T09:16:48.136Z,140
2018-06-29T09:17:58.211Z,145
2018-06-29T09:19:08.679Z,150
2018-06-29T09:20:18.845Z,150
2018-06-29T09:21:28.947Z,165
2018-06-29T09:22:38.776Z,150
2018-06-29T09:23:48.601Z,165
2018-06-29T09:24:58.699Z,170
2018-06-29T09:26:08.611Z,175
2018-06-29T09:27:18.463Z,175
2018-06-29T09:28:28.553Z,160
2018-06-29T09:29:38.635Z,145
2018-06-29T09:30:48.751Z,145
2018-06-29T09:31:58.834Z,145
2018-06-29T09:33:08.921Z,135
2018-06-29T09:34:18.761Z,135
2018-06-29T09:35:28.858Z,145
2018-06-29T09:36:38.749Z,155
2018-06-29T09:37:48.583Z,165
2018-06-29T09:38:58.671Z,165
2018-06-29T09:40:08.779Z,170
2018-06-29T09:41:54.764Z,170
2018-06-29T09:43:04.896Z,165
2018-06-29T09:44:15.096Z,165
2018-06-29T09:45:25.209Z,160
2018-06-29T09:46:35.300Z,160
2018-06-29T09:47:45.450Z,165
2018-06-29T09:48:55.608Z,160
2018-06-29T09:50:05.176Z,175
2018-06-29T09:51:15.280Z,190
2018-06-29T09:52:25.381Z,215
2018-06-29T09:53:35.541Z,230
2018-06-29T09:54:45.622Z,250
2018-06-29T09:55:55.448Z,275
2018-06-29T09:57:05.550Z,290
2018-06-29T09:58:15.114Z,315
2018-06-29T09:59:24.420Z,355
2018-06-29T10:00:34.747Z,335
2018-06-29T10:01:45.087Z,315
2018-06-29T10:02:55.142Z,310
2018-06-29T10:04:04.973Z,295
2018-06-29T10:05:15.071Z,290
2018-06-29T10:06:25.301Z,295
2018-06-29T10:07:35.418Z,300
2018-06-29T10:08:45.503Z,290
2018-06-29T10:09:55.582Z,280
2018-06-29T10:11:05.880Z,270
2018-06-29T10:12:15.774Z,270
2018-06-29T10:13:25.849Z,280
2018-06-29T10:14:36.285Z,285
2018-06-29T10:15:46.388Z,290
2018-06-29T10:16:56.623Z,295
2018-06-29T10:18:06.740Z,300
2018-06-29T10:19:19.117Z,305
2018-06-29T10:20:31.799Z,320
2018-06-29T10:21:44.551Z,345
2018-06-29T10:22:56.435Z,325
2018-06-29T10:24:07.742Z,320
2018-06-29T10:25:18.856Z,305
2018-06-29T10:26:29.895Z,290
2018-06-29T10:27:40.608Z,260
2018-06-29T10:28:51.565Z,230
2018-06-29T10:30:01.836Z,230
2018-06-29T10:31:11.958Z,230
2018-06-29T10:32:22.061Z,220
2018-06-29T10:33:31.894Z,205
2018-06-29T10:34:41.992Z,200
2018-06-29T10:35:52.091Z,200
2018-06-29T10:37:02.300Z,195
2018-06-29T10:38:12.400Z,190
2018-06-29T10:39:22.512Z,190
2018-06-29T10:40:32.621Z,200
2018-06-29T10:41:42.576Z,210
2018-06-29T10:42:52.670Z,210
2018-06-29T10:44:02.773Z,205
2018-06-29T10:45:13.090Z,215
2018-06-29T10:46:23.243Z,220
2018-06-29T10:47:32.831Z,230
2018-06-29T10:48:42.928Z,235
2018-06-29T10:49:53.038Z,235
2018-06-29T10:51:03.126Z,235
2018-06-29T10:52:12.953Z,240
2018-06-29T10:53:23.057Z,240
2018-06-29T10:54:33.160Z,245
2018-06-29T10:55:43.242Z,260
2018-06-29T10:56:53.336Z,270
2018-06-29T10:58:03.166Z,280
2018-06-29T10:59:13.007Z,270
2018-06-29T11:00:23.120Z,265
2018-06-29T11:01:33.222Z,255
2018-06-29T11:02:42.792Z,250
2018-06-29T11:03:52.916Z,255
2018-06-29T11:05:03.018Z,295
2018-06-29T11:06:13.125Z,300
2018-06-29T11:07:23.228Z,290
2018-06-29T11:08:33.324Z,285
2018-06-29T11:09:43.489Z,285
2018-06-29T11:10:53.702Z,290
2018-06-29T11:12:03.811Z,365
2018-06-29T11:13:13.918Z,310
2018-06-29T11:14:24.003Z,305
2018-06-29T11:15:34.085Z,340
2018-06-29T11:16:44.163Z,365
2018-06-29T11:17:54.242Z,415
2018-06-29T11:19:04.059Z,375
2018-06-29T11:20:14.140Z,370
2018-06-29T11:21:24.226Z,310
2018-06-29T11:22:34.381Z,260
2018-06-29T11:23:44.483Z,235
2018-06-29T11:24:54.580Z,200
2018-06-29T11:26:04.690Z,185
2018-06-29T11:27:14.771Z,185
2018-06-29T11:28:24.856Z,195
2018-06-29T11:29:34.947Z,195
2018-06-29T11:30:45.033Z,205
2018-06-29T11:31:55.126Z,205
2018-06-29T11:33:05.235Z,195
2018-06-29T11:34:15.050Z,190
2018-06-29T11:35:25.122Z,190
2018-06-29T11:36:35.209Z,185
2018-06-29T11:37:45.029Z,180
2018-06-29T11:38:54.644Z,180
2018-06-29T11:40:04.715Z,185
2018-06-29T11:41:14.818Z,195
2018-06-29T11:42:24.957Z,185
2018-06-29T11:43:35.080Z,180
2018-06-29T11:44:44.909Z,170
2018-06-29T11:45:55.004Z,165
2018-06-29T11:47:05.079Z,165
2018-06-29T11:48:15.147Z,165
2018-06-29T11:49:24.969Z,170
2018-06-29T11:50:35.111Z,175
2018-06-29T11:51:45.246Z,175
2018-06-29T11:52:55.317Z,175
2018-06-29T11:54:05.406Z,215
2018-06-29T11:55:15.228Z,180
2018-06-29T11:56:26.453Z,190
2018-06-29T11:57:36.013Z,195
2018-06-29T11:58:45.869Z,190
2018-06-29T11:59:55.698Z,180
2018-06-29T12:01:05.771Z,175
2018-06-29T12:02:15.892Z,180
2018-06-29T12:03:25.717Z,200
2018-06-29T12:04:35.536Z,215
2018-06-29T12:05:45.608Z,205
2018-06-29T12:06:55.787Z,180
2018-06-29T12:08:05.875Z,185
2018-06-29T12:09:15.734Z,185
2018-06-29T12:10:25.549Z,195
2018-06-29T12:11:35.628Z,205
2018-06-29T12:12:45.702Z,190
2018-06-29T12:13:55.785Z,180
2018-06-29T12:15:06.176Z,170
2018-06-29T12:16:16.255Z,155
2018-06-29T12:17:26.334Z,135
2018-06-29T12:18:36.412Z,130
2018-06-29T12:19:46.293Z,120
2018-06-29T12:20:56.726Z,105
2018-06-29T12:22:06.818Z,100
2018-06-29T12:23:16.409Z,95
2018-06-29T12:24:26.254Z,90
2018-06-29T12:25:36.769Z,80
2018-06-29T12:26:46.968Z,75
2018-06-29T12:27:57.122Z,80
2018-06-29T12:29:06.926Z,75
2018-06-29T12:30:16.731Z,70
2018-06-29T12:31:26.808Z,60
2018-06-29T12:32:36.883Z,55
2018-06-29T12:33:46.960Z,50
2018-06-29T12:34:57.053Z,55
2018-06-29T12:36:06.867Z,55
2018-06-29T12:37:16.698Z,60
2018-06-29T12:38:26.513Z,65
2018-06-29T12:39:36.599Z,70
2018-06-29T12:40:46.675Z,70
2018-06-29T12:41:56.754Z,70
2018-06-29T12:43:06.845Z,65
2018-06-29T12:44:16.719Z,65
2018-06-29T12:45:26.815Z,65
2018-06-29T12:46:36.636Z,60
2018-06-29T12:47:46.441Z,60
2018-06-29T12:48:56.560Z,60
2018-06-29T12:50:06.408Z,65
2018-06-29T12:51:16.231Z,65
2018-06-29T12:52:26.312Z,70
2018-06-29T12:53:36.373Z,70
2018-06-29T12:54:46.177Z,75
2018-06-29T12:55:56.663Z,75
2018-06-29T12:57:06.876Z,70
2018-06-29T12:58:16.681Z,75
2018-06-29T12:59:26.488Z,75
2018-06-29T13:00:36.372Z,85
2018-06-29T13:01:46.474Z,105
2018-06-29T13:02:56.558Z,125
2018-06-29T13:04:06.659Z,130
2018-06-29T13:05:16.834Z,135
2018-06-29T13:06:26.989Z,130
2018-06-29T13:07:37.078Z,125
2018-06-29T13:08:47.167Z,120
2018-06-29T13:09:57.247Z,115
2018-06-29T13:11:07.341Z,100
2018-06-29T13:12:17.169Z,90
2018-06-29T13:13:27.358Z,90
2018-06-29T13:14:37.201Z,95
2018-06-29T13:15:47.024Z,105
2018-06-29T13:16:56.873Z,110
2018-06-29T13:18:06.962Z,120
2018-06-29T13:19:17.057Z,125
2018-06-29T13:20:27.126Z,125
2018-06-29T13:21:36.936Z,120
2018-06-29T13:22:47.009Z,120
2018-06-29T13:23:57.147Z,125
2018-06-29T13:25:07.919Z,135
2018-06-29T13:26:18.018Z,150
2018-06-29T13:27:27.848Z,155
2018-06-29T13:28:38.118Z,145
2018-06-29T13:29:47.697Z,135
2018-06-29T13:30:57.706Z,125
2018-06-29T13:32:07.817Z,120
2018-06-29T13:33:17.939Z,130
2018-06-29T13:34:28.043Z,120
2018-06-29T13:35:38.122Z,120
2018-06-29T13:36:47.948Z,130
2018-06-29T13:37:58.044Z,135
2018-06-29T13:39:07.878Z,140
2018-06-29T13:40:17.961Z,150
2018-06-29T13:41:28.051Z,150
2018-06-29T13:42:38.164Z,155
2018-06-29T13:43:48.028Z,150
2018-06-29T13:44:58.155Z,150
2018-06-29T13:46:08.251Z,150
2018-06-29T13:47:18.380Z,145
2018-06-29T13:48:28.189Z,145
2018-06-29T13:49:38.021Z,150
2018-06-29T13:50:48.141Z,155
2018-06-29T13:51:58.226Z,160
2018-06-29T13:53:08.303Z,165
2018-06-29T13:54:17.888Z,175
2018-06-29T13:55:27.743Z,175
2018-06-29T13:56:37.831Z,175
2018-06-29T13:57:47.658Z,175
2018-06-29T13:58:57.747Z,170
2018-06-29T14:00:07.833Z,165
2018-06-29T14:01:17.897Z,165
2018-06-29T14:02:28.063Z,170
2018-06-29T14:03:38.151Z,185
2018-06-29T14:04:48.280Z,195
2018-06-29T14:05:58.111Z,200
2018-06-29T14:07:08.267Z,205
2018-06-29T14:08:18.453Z,210
2018-06-29T14:09:28.716Z,235
2018-06-29T14:10:38.816Z,245
2018-06-29T14:11:48.974Z,265
2018-06-29T14:12:59.065Z,260
2018-06-29T14:14:09.171Z,260
2018-06-29T14:15:19.323Z,245
2018-06-29T14:16:29.466Z,240
2018-06-29T14:17:39.340Z,230
2018-06-29T14:18:49.536Z,220
2018-06-29T14:20:00.173Z,220
2018-06-29T14:21:10.098Z,240
2018-06-29T14:22:19.836Z,240
2018-06-29T14:23:29.974Z,215
2018-06-29T14:24:40.698Z,210
2018-06-29T14:25:51.064Z,255
2018-06-29T14:27:01.165Z,230
2018-06-29T14:28:11.292Z,210
2018-06-29T14:29:21.407Z,190
2018-06-29T14:30:31.510Z,170
2018-06-29T14:31:41.614Z,165
2018-06-29T14:32:51.708Z,165
2018-06-29T14:34:01.784Z,160
2018-06-29T14:35:11.628Z,155
2018-06-29T14:36:21.940Z,145
2018-06-29T14:37:32.040Z,140
2018-06-29T14:38:42.138Z,135
2018-06-29T14:39:51.691Z,130
2018-06-29T14:41:01.887Z,130
2018-06-29T14:42:11.615Z,130
2018-06-29T14:43:21.721Z,125
2018-06-29T14:44:31.802Z,110
2018-06-29T14:45:41.375Z,105
2018-06-29T14:46:51.468Z,100
2018-06-29T14:48:01.296Z,100
2018-06-29T14:49:11.399Z,105
2018-06-29T14:50:21.751Z,105
2018-06-29T14:51:31.893Z,105
2018-06-29T14:52:41.741Z,105
2018-06-29T14:53:51.827Z,105
2018-06-29T14:55:01.649Z,100
2018-06-29T14:56:11.758Z,95
2018-06-29T14:57:22.642Z,85
2018-06-29T14:58:32.754Z,80
2018-06-29T14:59:42.850Z,70
2018-06-29T15:00:52.988Z,70
2018-06-29T15:02:02.823Z,75
2018-06-29T15:03:12.698Z,70
2018-06-29T15:04:23.089Z,75
2018-06-29T15:05:32.942Z,75
2018-06-29T15:06:43.061Z,85
2018-06-29T15:07:53.191Z,95
2018-06-29T15:09:03.298Z,105
2018-06-29T15:10:13.141Z,115
2018-06-29T15:11:23.232Z,130
2018-06-29T15:12:33.523Z,145
2018-06-29T15:13:43.619Z,145
2018-06-29T15:14:53.218Z,150
2018-06-29T15:16:03.502Z,150
2018-06-29T15:17:13.621Z,155
2018-06-29T15:18:23.730Z,165
2018-06-29T15:19:33.819Z,180
2018-06-29T15:20:43.944Z,170
2018-06-29T15:21:54.337Z,175
2018-06-29T15:23:04.444Z,190
2018-06-29T15:24:14.316Z,210
2018-06-29T15:25:24.727Z,230
2018-06-29T15:26:34.898Z,240
2018-06-29T15:27:45.020Z,245
2018-06-29T15:28:55.488Z,250
2018-06-29T15:30:05.322Z,240
2018-06-29T15:31:15.780Z,225
2018-06-29T15:32:25.941Z,215
2018-06-29T15:33:35.804Z,200
2018-06-29T15:34:45.910Z,185
2018-06-29T15:35:59.090Z,175
2018-06-29T15:37:12.841Z,155
2018-06-29T15:38:26.639Z,125
2018-06-29T15:39:39.531Z,130
2018-06-29T15:40:53.275Z,135
2018-06-29T15:42:07.081Z,135
2018-06-29T15:43:20.870Z,105
2018-06-29T15:44:34.294Z,110
2018-06-29T15:45:47.241Z,115
2018-06-29T15:47:01.874Z,105
2018-06-29T15:48:16.091Z,90
2018-06-29T15:49:30.501Z,85
2018-06-29T15:50:45.645Z,80
2018-06-29T15:51:59.604Z,75
2018-06-29T15:53:14.127Z,75
2018-06-29T15:54:28.259Z,75
2018-06-29T15:55:42.877Z,75
2018-06-29T15:56:57.215Z,75
2018-06-29T15:58:11.975Z,80
2018-06-29T15:59:26.404Z,80
2018-06-29T16:00:38.642Z,75
2018-06-29T16:01:52.244Z,75
2018-06-29T16:03:04.075Z,75
2018-06-29T16:04:17.499Z,75
2018-06-29T16:05:27.813Z,75
2018-06-29T16:06:37.905Z,75
2018-06-29T16:07:47.983Z,75
2018-06-29T16:08:58.092Z,75
2018-06-29T16:10:07.677Z,75
2018-06-29T16:11:18.083Z,75
2018-06-29T16:12:28.358Z,80
2018-06-29T16:13:38.475Z,85
2018-06-29T16:14:48.301Z,90
2018-06-29T16:15:58.434Z,90
2018-06-29T16:17:08.585Z,95
2018-06-29T16:18:18.692Z,95
2018-06-29T16:19:28.533Z,105
2018-06-29T16:20:38.619Z,110
2018-06-29T16:21:48.914Z,125
2018-06-29T16:22:59.076Z,130
2018-06-29T16:24:09.268Z,140
2018-06-29T16:25:19.783Z,145
2018-06-29T16:26:29.911Z,150
2018-06-29T16:27:39.752Z,165
2018-06-29T16:28:49.928Z,165
2018-06-29T16:30:00.124Z,160
2018-06-29T16:31:10.233Z,135
2018-06-29T16:32:20.362Z,125
2018-06-29T16:33:30.530Z,115
2018-06-29T16:34:40.610Z,120
2018-06-29T16:35:50.742Z,110
2018-06-29T16:37:00.610Z,105
2018-06-29T16:38:10.734Z,95
2018-06-29T16:39:20.841Z,85
2018-06-29T16:40:31.560Z,85
2018-06-29T16:41:42.253Z,85
2018-06-29T16:42:52.464Z,90
2018-06-29T16:44:02.206Z,90
2018-06-29T16:45:12.420Z,105
2018-06-29T16:46:23.149Z,105
2018-06-29T16:47:33.378Z,120
2018-06-29T16:48:43.928Z,120
2018-06-29T16:49:53.816Z,125
2018-06-29T16:51:04.220Z,130
2018-06-29T16:52:14.517Z,125
2018-06-29T16:53:24.797Z,125
2018-06-29T16:54:35.047Z,120
2018-06-29T16:55:45.168Z,125
2018-06-29T16:56:55.635Z,130